Time;durP1;ratioP1;P1;durP2;ratioP2;P2;SDS_P1;SDS_P2;PMS_P1;PMS_P2;Temp;Humidity;BMP_temperature;BMP_pressure;BME280_temperature;BME280_humidity;BME280_pressure;Samples;Min_cycle;Max_cycle;Signal;HPM_P1;HPM_P2
2022/02/13 00:01:49;;;;;;;;;;;;;;;13.41;67.77;102451.03;145002;915;1018;-87
2022/02/13 00:04:15;;;;;;;;;;;;;;;13.33;67.64;102452.38;145002;920;1020;-87
2022/02/13 00:06:41;;;;;;;;;;;;;;;13.29;68.00;102451.31;145002;916;1019;-87
2022/02/13 00:09:07;;;;;;;;;;;;;;;13.25;67.92;102455.50;145002;915;1020;-88
2022/02/13 00:11:33;;;;;;;;;;;;;;;13.24;68.25;102458.03;145002;920;1019;-86
2022/02/13 00:13:59;;;;;;;;;;;;;;;13.01;69.42;102459.56;145002;920;1018;-85
2022/02/13 00:16:25;;;;;;;;;;;;;;;13.00;69.06;102463.00;145001;915;1998;-86
2022/02/13 00:18:54;;;;;;;;;;;;;;;13.01;68.70;102460.47;145002;922;1017;-87
2022/02/13 00:21:20;;;;;;;;;;;;;;;12.96;69.53;102454.13;145002;922;1018;-86
2022/02/13 00:23:58;;;;;;;;;;;;;;;12.80;73.35;102455.09;145002;917;1016;-85
2022/02/13 00:26:35;;;;;;;;;;;;;;;12.88;69.90;102455.47;145002;922;1015;-84
2022/02/13 00:29:05;;;;;;;;;;;;;;;13.03;69.62;102453.59;145002;922;1017;-87
2022/02/13 00:31:31;;;;;;;;;;;;;;;13.15;69.48;102448.06;145002;921;1021;-87
2022/02/13 00:33:58;;;;;;;;;;;;;;;13.25;69.12;102455.50;145002;922;1017;-86
2022/02/13 00:36:24;;;;;;;;;;;;;;;13.34;68.82;102449.84;145002;922;1021;-86
2022/02/13 00:39:00;;;;;;;;;;;;;;;13.36;68.70;102450.81;145002;921;1018;-87
2022/02/13 00:41:26;;;;;;;;;;;;;;;13.37;68.97;102465.62;145002;922;1017;-86
2022/02/13 00:43:54;;;;;;;;;;;;;;;13.34;69.62;102467.22;145002;922;1020;-86
2022/02/13 00:46:22;;;;;;;;;;;;;;;13.32;69.22;102461.00;145002;921;1021;-87
2022/02/13 00:48:48;;;;;;;;;;;;;;;13.37;69.50;102459.53;145002;922;1018;-86
2022/02/13 00:51:14;;;;;;;;;;;;;;;13.35;69.11;102463.81;145002;918;1020;-86
2022/02/13 00:53:41;;;;;;;;;;;;;;;13.28;69.17;102459.06;145002;917;1022;-85
2022/02/13 00:56:07;;;;;;;;;;;;;;;13.28;68.86;102453.84;145002;922;1018;-86
2022/02/13 00:58:33;;;;;;;;;;;;;;;13.19;69.52;102450.00;145002;922;1021;-88
2022/02/13 01:00:59;;;;;;;;;;;;;;;13.15;69.24;102463.72;145002;921;1017;-86
2022/02/13 01:03:25;;;;;;;;;;;;;;;13.09;69.46;102454.72;145002;918;1017;-87
2022/02/13 01:05:52;;;;;;;;;;;;;;;13.03;71.02;102461.44;145002;922;1017;-87
2022/02/13 01:08:18;;;;;;;;;;;;;;;12.96;69.76;102456.72;145002;921;1021;-85
2022/02/13 01:10:45;;;;;;;;;;;;;;;12.94;70.04;102447.06;145002;922;1017;-88
2022/02/13 01:13:10;;;;;;;;;;;;;;;12.98;69.72;102451.59;145002;922;1017;-92
2022/02/13 01:15:37;;;;;;;;;;;;;;;12.64;73.57;102455.19;145002;917;1021;-86
2022/02/13 01:18:03;;;;;;;;;;;;;;;12.51;73.79;102443.28;145002;922;1019;-86
2022/02/13 01:20:29;;;;;;;;;;;;;;;12.59;71.37;102441.94;145002;922;1020;-88
2022/02/13 01:22:55;;;;;;;;;;;;;;;12.72;70.78;102434.72;145002;919;1018;-87
2022/02/13 01:25:21;;;;;;;;;;;;;;;12.32;74.70;102434.53;145002;918;1020;-86
2022/02/13 01:27:47;;;;;;;;;;;;;;;12.57;71.38;102427.94;145002;922;1017;-85
2022/02/13 01:30:13;;;;;;;;;;;;;;;12.64;70.96;102427.41;145002;921;1020;-86
2022/02/13 01:32:39;;;;;;;;;;;;;;;12.44;73.72;102433.34;145002;918;1022;-87
2022/02/13 01:35:06;;;;;;;;;;;;;;;12.32;72.58;102421.50;145002;922;1020;-84
2022/02/13 01:37:32;;;;;;;;;;;;;;;12.45;71.18;102415.19;145002;921;1020;-85
2022/02/13 01:40:16;;;;;;;;;;;;;;;12.55;71.02;102406.16;145002;918;1016;-83
2022/02/13 01:42:42;;;;;;;;;;;;;;;12.57;72.50;102403.63;145002;922;1019;-85
2022/02/13 01:45:08;;;;;;;;;;;;;;;12.63;70.85;102394.38;145002;921;1021;-85
2022/02/13 01:47:35;;;;;;;;;;;;;;;12.71;70.44;102402.56;145002;922;1018;-88
2022/02/13 01:50:03;;;;;;;;;;;;;;;12.78;70.35;102403.75;145001;922;2000;-86
2022/02/13 01:52:29;;;;;;;;;;;;;;;12.86;70.07;102402.38;145002;921;1017;-86
2022/02/13 01:54:56;;;;;;;;;;;;;;;12.87;69.87;102398.97;145002;922;1018;-86
2022/02/13 01:57:22;;;;;;;;;;;;;;;12.73;71.68;102402.63;145002;922;1020;-85
2022/02/13 01:59:48;;;;;;;;;;;;;;;12.67;70.22;102392.81;145002;921;1017;-85
2022/02/13 02:02:14;;;;;;;;;;;;;;;12.62;70.14;102399.50;145002;917;1019;-83
2022/02/13 02:04:43;;;;;;;;;;;;;;;12.58;70.38;102400.16;145002;918;1021;-85
2022/02/13 02:07:09;;;;;;;;;;;;;;;12.58;70.13;102400.16;145002;921;1023;-85
2022/02/13 02:09:35;;;;;;;;;;;;;;;12.39;71.21;102390.56;145002;918;1017;-86
2022/02/13 02:12:05;;;;;;;;;;;;;;;12.20;72.76;102400.09;145002;922;1018;-85
2022/02/13 02:14:31;;;;;;;;;;;;;;;12.17;72.04;102407.75;145002;921;1020;-84
2022/02/13 02:16:57;;;;;;;;;;;;;;;12.25;71.50;102409.03;145002;917;1017;-86
2022/02/13 02:19:22;;;;;;;;;;;;;;;12.32;71.10;102394.59;145002;918;1020;-86
2022/02/13 02:21:50;;;;;;;;;;;;;;;12.39;70.83;102393.16;145002;922;1017;-83
2022/02/13 02:24:17;;;;;;;;;;;;;;;12.45;70.79;102406.50;145002;922;1022;-86
2022/02/13 02:26:43;;;;;;;;;;;;;;;12.49;70.59;102403.25;145002;922;1017;-85
2022/02/13 02:29:09;;;;;;;;;;;;;;;12.50;70.65;102408.53;145002;921;1019;-84
2022/02/13 02:31:42;;;;;;;;;;;;;;;12.50;70.69;102424.16;145002;921;1016;-84
2022/02/13 02:34:21;;;;;;;;;;;;;;;;;;;;;
2022/02/13 02:37:02;;;;;;;;;;;;;;;12.67;70.89;102413.66;145002;917;1017;-86
2022/02/13 02:39:29;;;;;;;;;;;;;;;12.48;72.75;102419.69;145002;922;1021;-87
2022/02/13 02:41:55;;;;;;;;;;;;;;;12.42;72.03;102412.44;145002;918;1020;-85
2022/02/13 02:44:21;;;;;;;;;;;;;;;12.50;71.79;102407.59;145002;918;1018;-86
2022/02/13 02:46:47;;;;;;;;;;;;;;;12.28;72.88;102403.06;145002;922;1019;-86
2022/02/13 02:49:13;;;;;;;;;;;;;;;12.46;71.43;102403.97;145002;922;1021;-85
2022/02/13 02:51:42;;;;;;;;;;;;;;;12.51;71.08;102415.50;145002;921;1020;-85
2022/02/13 02:54:08;;;;;;;;;;;;;;;12.46;71.18;102409.19;145002;922;1019;-84
2022/02/13 02:56:33;;;;;;;;;;;;;;;12.48;71.10;102406.66;145002;918;1021;-84
2022/02/13 02:59:00;;;;;;;;;;;;;;;12.39;71.45;102420.13;145002;918;1022;-85
2022/02/13 03:01:26;;;;;;;;;;;;;;;12.45;71.18;102416.91;145002;922;1018;-85
2022/02/13 03:03:52;;;;;;;;;;;;;;;12.54;70.96;102425.19;145002;922;1020;-85
2022/02/13 03:06:18;;;;;;;;;;;;;;;12.51;71.60;102430.25;145002;918;1020;-85
2022/02/13 03:08:47;;;;;;;;;;;;;;;12.54;71.00;102419.09;145002;922;1021;-86
2022/02/13 03:11:22;;;;;;;;;;;;;;;12.59;70.67;102418.47;145002;922;1022;-84
2022/02/13 03:14:10;;;;;;;;;;;;;;;;;;;;;
2022/02/13 03:16:49;;;;;;;;;;;;;;;12.82;70.56;102418.69;145002;926;1015;-84
2022/02/13 03:19:27;;;;;;;;;;;;;;;12.89;70.78;102433.81;145002;924;1016;-85
2022/02/13 03:21:59;;;;;;;;;;;;;;;12.99;70.36;102422.97;145003;924;1017;-85
2022/02/13 03:24:38;;;;;;;;;;;;;;;13.05;70.31;102411.97;145003;924;1019;-84
2022/02/13 03:27:16;;;;;;;;;;;;;;;13.17;69.83;102406.41;145003;925;1019;-82
2022/02/13 03:29:44;;;;;;;;;;;;;;;13.17;69.77;102406.41;145003;924;1016;-83
2022/02/13 03:32:10;;;;;;;;;;;;;;;13.19;69.95;102415.22;145003;921;1019;-85
2022/02/13 03:34:36;;;;;;;;;;;;;;;13.18;69.64;102413.44;145003;925;1016;-85
2022/02/13 03:37:03;;;;;;;;;;;;;;;13.07;69.61;102413.84;145003;920;1020;-84
2022/02/13 03:39:29;;;;;;;;;;;;;;;13.05;69.36;102415.47;145003;925;1016;-84
2022/02/13 03:41:55;;;;;;;;;;;;;;;12.98;69.43;102420.31;145003;925;1017;-84
2022/02/13 03:44:21;;;;;;;;;;;;;;;12.94;69.59;102414.06;145002;924;2000;-85
2022/02/13 03:46:47;;;;;;;;;;;;;;;12.79;70.07;102410.72;145003;921;1020;-83
2022/02/13 03:49:13;;;;;;;;;;;;;;;12.72;69.95;102411.25;145002;921;1020;-83
2022/02/13 03:51:39;;;;;;;;;;;;;;;12.70;69.97;102408.59;145002;921;1021;-83
2022/02/13 03:54:05;;;;;;;;;;;;;;;12.62;70.20;102412.53;145002;925;1020;-84
2022/02/13 03:56:31;;;;;;;;;;;;;;;12.60;70.15;102402.03;145002;925;1020;-86
2022/02/13 03:58:57;;;;;;;;;;;;;;;12.56;70.43;102399.22;145002;924;1018;-80
2022/02/13 04:01:23;;;;;;;;;;;;;;;12.55;70.20;102410.44;145002;924;1019;-85
2022/02/13 04:03:49;;;;;;;;;;;;;;;12.51;70.26;102420.72;145002;921;1017;-83
2022/02/13 04:06:15;;;;;;;;;;;;;;;12.52;70.12;102419.03;145002;921;1017;-84
2022/02/13 04:08:41;;;;;;;;;;;;;;;12.52;69.92;102426.84;145001;925;2000;-83
2022/02/13 04:11:08;;;;;;;;;;;;;;;12.51;69.97;102422.44;145002;925;1017;-85
2022/02/13 04:13:34;;;;;;;;;;;;;;;12.49;70.18;102431.88;145002;924;1022;-86
2022/02/13 04:15:59;;;;;;;;;;;;;;;12.33;71.07;102427.63;145002;920;1020;-84
2022/02/13 04:18:25;;;;;;;;;;;;;;;12.32;70.70;102434.53;145002;921;1017;-83
2022/02/13 04:20:51;;;;;;;;;;;;;;;12.34;70.44;102432.91;145002;920;1020;-84
2022/02/13 04:23:17;;;;;;;;;;;;;;;12.41;70.26;102433.19;145002;924;1016;-83
2022/02/13 04:25:43;;;;;;;;;;;;;;;12.43;70.39;102447.22;145002;921;1017;-83
2022/02/13 04:28:09;;;;;;;;;;;;;;;12.41;70.69;102454.03;145002;920;1020;-85
2022/02/13 04:30:35;;;;;;;;;;;;;;;12.44;70.11;102448.97;145002;921;1019;-83
2022/02/13 04:33:01;;;;;;;;;;;;;;;12.40;70.27;102447.94;145002;921;1019;-84
2022/02/13 04:35:28;;;;;;;;;;;;;;;12.42;70.44;102443.69;145002;921;1017;-85
2022/02/13 04:37:54;;;;;;;;;;;;;;;12.45;70.13;102450.78;145002;925;1017;-84
2022/02/13 04:40:21;;;;;;;;;;;;;;;12.43;70.34;102455.03;145001;925;2000;-84
2022/02/13 04:42:47;;;;;;;;;;;;;;;12.40;70.43;102453.16;145002;925;1021;-85
2022/02/13 04:45:16;;;;;;;;;;;;;;;12.36;71.59;102459.03;145002;924;1016;-86
2022/02/13 04:47:42;;;;;;;;;;;;;;;12.44;70.65;102455.09;145002;925;1021;-82
2022/02/13 04:50:09;;;;;;;;;;;;;;;12.52;70.66;102463.31;145002;920;1017;-84
2022/02/13 04:52:44;;;;;;;;;;;;;;;12.54;70.73;102453.84;145002;924;1020;-83
2022/02/13 04:55:10;;;;;;;;;;;;;;;12.50;70.51;102460.63;145001;925;2000;-84
2022/02/13 04:57:36;;;;;;;;;;;;;;;12.55;70.25;102463.47;145002;925;1017;-88
2022/02/13 05:00:02;;;;;;;;;;;;;;;12.36;70.99;102471.16;145002;921;1018;-85
2022/02/13 05:02:28;;;;;;;;;;;;;;;12.50;70.46;102472.72;145002;925;1019;-84
2022/02/13 05:04:54;;;;;;;;;;;;;;;12.32;69.69;102480.53;145002;925;1017;-85
2022/02/13 05:07:23;;;;;;;;;;;;;;;12.45;70.35;102487.25;145002;925;1017;-84
2022/02/13 05:09:49;;;;;;;;;;;;;;;12.45;70.35;102492.44;145002;925;1020;-84
2022/02/13 05:12:15;;;;;;;;;;;;;;;12.49;69.99;102486.59;145002;925;1017;-84
2022/02/13 05:14:47;;;;;;;;;;;;;;;12.50;69.66;102489.28;145002;920;1018;-81
2022/02/13 05:17:15;;;;;;;;;;;;;;;12.49;69.87;102495.28;145002;925;1016;-84
2022/02/13 05:19:40;;;;;;;;;;;;;;;12.58;69.75;102494.84;145002;925;1018;-84
2022/02/13 05:22:06;;;;;;;;;;;;;;;12.63;69.54;102495.06;145002;921;1018;-84
2022/02/13 05:24:36;;;;;;;;;;;;;;;12.62;68.97;102491.59;145002;921;1019;-85
2022/02/13 05:27:17;;;;;;;;;;;;;;;12.63;68.99;102482.03;145002;925;1022;-84
2022/02/13 05:29:50;;;;;;;;;;;;;;;12.64;69.18;102483.84;145002;925;1016;-84
2022/02/13 05:32:38;;;;;;;;;;;;;;;;;;;;;
2022/02/13 05:35:08;;;;;;;;;;;;;;;12.82;68.79;102483.84;145002;922;1018;-84
2022/02/13 05:37:34;;;;;;;;;;;;;;;12.84;68.72;102487.44;145002;922;1023;-85
2022/02/13 05:40:01;;;;;;;;;;;;;;;12.83;68.61;102496.94;145002;903;1019;-82
2022/02/13 05:42:26;;;;;;;;;;;;;;;12.81;68.28;102498.59;145002;922;1019;-83
2022/02/13 05:44:56;;;;;;;;;;;;;;;12.80;68.29;102503.72;145002;919;1020;-85
2022/02/13 05:47:26;;;;;;;;;;;;;;;12.69;68.54;102511.94;145002;923;1019;-87
2022/02/13 05:49:52;;;;;;;;;;;;;;;12.65;68.63;102517.78;145002;922;1023;-85
2022/02/13 05:52:21;;;;;;;;;;;;;;;12.60;68.72;102521.87;145002;919;1022;-84
2022/02/13 05:54:47;;;;;;;;;;;;;;;12.42;69.57;102523.56;145002;923;1023;-83
2022/02/13 05:57:16;;;;;;;;;;;;;;;12.41;69.01;102517.47;145002;918;1018;-83
2022/02/13 05:59:42;;;;;;;;;;;;;;;12.40;69.27;102515.66;145002;923;1018;-84
2022/02/13 06:02:09;;;;;;;;;;;;;;;12.30;69.57;102518.63;145002;919;1021;-84
2022/02/13 06:04:38;;;;;;;;;;;;;;;12.07;69.95;102523.50;145002;923;1018;-84
2022/02/13 06:07:07;;;;;;;;;;;;;;;12.06;69.90;102529.53;145002;923;1017;-85
2022/02/13 06:09:33;;;;;;;;;;;;;;;12.29;69.88;102525.50;145002;923;1019;-84
2022/02/13 06:11:59;;;;;;;;;;;;;;;12.42;69.44;102523.56;145002;923;1022;-83
2022/02/13 06:14:25;;;;;;;;;;;;;;;12.27;68.17;102521.94;145002;918;1018;-85
2022/02/13 06:16:55;;;;;;;;;;;;;;;12.03;69.72;102525.91;145002;923;1020;-83
2022/02/13 06:19:21;;;;;;;;;;;;;;;12.08;69.76;102533.12;145002;923;1019;-86
2022/02/13 06:21:47;;;;;;;;;;;;;;;12.08;69.32;102538.31;145001;922;2002;-83
2022/02/13 06:24:14;;;;;;;;;;;;;;;12.07;69.14;102535.63;145002;921;1017;-85
2022/02/13 06:26:41;;;;;;;;;;;;;;;11.80;69.38;102536.84;145002;925;1017;-83
2022/02/13 06:29:08;;;;;;;;;;;;;;;11.87;69.25;102535.44;145002;925;1019;-84
2022/02/13 06:31:39;;;;;;;;;;;;;;;11.71;69.47;102551.94;145002;925;1016;-84
2022/02/13 06:34:05;;;;;;;;;;;;;;;11.87;69.43;102543.25;145002;925;1018;-85
2022/02/13 06:36:31;;;;;;;;;;;;;;;11.99;69.00;102543.03;145002;921;1018;-84
2022/02/13 06:38:57;;;;;;;;;;;;;;;11.78;68.52;102554.03;145002;925;1017;-85
2022/02/13 06:41:23;;;;;;;;;;;;;;;11.45;70.13;102560.91;145002;920;1021;-85
2022/02/13 06:43:49;;;;;;;;;;;;;;;11.28;70.70;102564.25;145002;920;1017;-86
2022/02/13 06:46:15;;;;;;;;;;;;;;;11.53;70.13;102558.72;145002;925;1018;-85
2022/02/13 06:48:42;;;;;;;;;;;;;;;11.24;69.97;102561.47;145002;924;1016;-87
2022/02/13 06:51:10;;;;;;;;;;;;;;;11.51;70.49;102565.56;145002;924;1018;-85
2022/02/13 06:53:38;;;;;;;;;;;;;;;11.66;70.04;102562.88;145002;924;1020;-85
2022/02/13 06:56:04;;;;;;;;;;;;;;;11.80;69.42;102562.84;145002;925;1017;-86
2022/02/13 06:58:42;;;;;;;;;;;;;;;11.90;69.18;102552.91;145002;924;1017;-83
2022/02/13 07:01:09;;;;;;;;;;;;;;;11.72;69.33;102556.31;145002;925;1018;-85
2022/02/13 07:03:45;;;;;;;;;;;;;;;11.65;70.02;102562.00;145002;925;1017;-85
2022/02/13 07:06:12;;;;;;;;;;;;;;;11.14;72.21;102566.97;145002;925;1019;-86
2022/02/13 07:08:38;;;;;;;;;;;;;;;11.29;72.01;102566.94;145002;925;1018;-85
2022/02/13 07:11:04;;;;;;;;;;;;;;;11.53;70.52;102566.53;145002;925;1018;-84
2022/02/13 07:13:30;;;;;;;;;;;;;;;11.70;69.88;102572.66;145002;924;1020;-84
2022/02/13 07:15:56;;;;;;;;;;;;;;;11.78;69.53;102568.78;145002;921;1017;-85
2022/02/13 07:18:22;;;;;;;;;;;;;;;11.77;69.91;102579.97;145001;925;2000;-83
2022/02/13 07:20:48;;;;;;;;;;;;;;;11.70;70.23;102572.66;145002;920;1016;-84
2022/02/13 07:23:14;;;;;;;;;;;;;;;11.42;71.56;102578.94;145002;921;1019;-84
2022/02/13 07:25:40;;;;;;;;;;;;;;;11.38;70.98;102577.88;145002;920;1019;-85
2022/02/13 07:30:50;;;;;;;;;;;;;;;10.83;74.54;102578.22;145002;917;1024;-84
2022/02/13 07:33:16;;;;;;;;;;;;;;;11.13;71.72;102578.19;145002;921;1018;-85
2022/02/13 07:35:43;;;;;;;;;;;;;;;11.14;71.51;102587.78;145002;920;1018;-85
2022/02/13 07:38:09;;;;;;;;;;;;;;;10.88;73.06;102587.19;145002;920;1019;-85
2022/02/13 07:40:39;;;;;;;;;;;;;;;11.18;71.35;102596.63;145002;921;1023;-84
2022/02/13 07:43:05;;;;;;;;;;;;;;;11.34;70.85;102606.22;145002;920;1021;-84
2022/02/13 07:45:31;;;;;;;;;;;;;;;11.43;70.50;102604.13;145002;917;1023;-84
2022/02/13 07:47:57;;;;;;;;;;;;;;;11.50;70.45;102606.28;145002;917;1020;-86
2022/02/13 07:50:23;;;;;;;;;;;;;;;11.62;70.08;102603.47;145002;920;1024;-84
2022/02/13 07:52:51;;;;;;;;;;;;;;;11.70;69.75;102611.69;145002;916;1018;-85
2022/02/13 07:55:18;;;;;;;;;;;;;;;11.66;69.89;102614.91;145002;921;1019;-87
2022/02/13 07:57:44;;;;;;;;;;;;;;;11.57;70.15;102613.59;145002;920;1018;-84
2022/02/13 08:00:11;;;;;;;;;;;;;;;11.63;69.99;102610.47;145002;920;1022;-84
2022/02/13 08:02:38;;;;;;;;;;;;;;;11.58;69.90;102617.09;145002;921;1023;-84
2022/02/13 08:05:06;;;;;;;;;;;;;;;11.54;70.08;102612.53;145002;920;1019;-85
2022/02/13 08:07:32;;;;;;;;;;;;;;;11.56;69.61;102614.41;145002;920;1019;-83
2022/02/13 08:09:58;;;;;;;;;;;;;;;11.48;70.11;102613.09;145002;921;1020;-87
2022/02/13 08:12:24;;;;;;;;;;;;;;;11.53;69.66;102616.87;145002;916;1019;-84
2022/02/13 08:14:50;;;;;;;;;;;;;;;11.62;69.67;102614.75;145001;920;2002;-83
2022/02/13 08:17:17;;;;;;;;;;;;;;;11.70;69.36;102619.50;145002;921;1017;-87
2022/02/13 08:19:43;;;;;;;;;;;;;;;11.77;69.43;102617.31;145002;922;1020;-83
2022/02/13 08:22:09;;;;;;;;;;;;;;;11.89;69.20;102622.28;145002;922;1022;-84
2022/02/13 08:24:40;;;;;;;;;;;;;;;12.02;69.24;102626.50;145002;919;1017;-84
2022/02/13 08:27:06;;;;;;;;;;;;;;;12.11;69.75;102627.00;145002;923;1017;-84
2022/02/13 08:29:35;;;;;;;;;;;;;;;12.04;70.27;102639.59;145002;923;1019;-85
2022/02/13 08:32:03;;;;;;;;;;;;;;;12.23;69.50;102637.16;145002;923;1019;-84
2022/02/13 08:34:35;;;;;;;;;;;;;;;12.38;69.29;102629.28;145002;922;1020;-84
2022/02/13 08:37:11;;;;;;;;;;;;;;;;;;;;;
2022/02/13 08:39:44;;;;;;;;;;;;;;;12.55;69.04;102639.69;145002;921;1020;-85
2022/02/13 08:42:12;;;;;;;;;;;;;;;12.60;68.87;102641.72;145002;921;1020;-84
2022/02/13 08:44:38;;;;;;;;;;;;;;;12.60;68.86;102638.22;145002;921;1020;-86
2022/02/13 08:47:04;;;;;;;;;;;;;;;12.58;68.78;102643.34;145002;921;1020;-84
2022/02/13 08:49:41;;;;;;;;;;;;;;;12.54;68.90;102649.22;145002;920;1022;-83
2022/02/13 08:52:09;;;;;;;;;;;;;;;12.61;68.56;102645.22;145002;920;1018;-83
2022/02/13 08:54:37;;;;;;;;;;;;;;;12.50;68.62;102648.19;145002;921;1019;-83
2022/02/13 08:57:04;;;;;;;;;;;;;;;12.64;69.04;102651.47;145002;920;1018;-82
2022/02/13 08:59:30;;;;;;;;;;;;;;;12.76;68.62;102650.31;145002;921;1018;-85
2022/02/13 09:01:56;;;;;;;;;;;;;;;12.61;68.78;102656.53;145002;917;1018;-86
2022/02/13 09:04:22;;;;;;;;;;;;;;;12.67;68.48;102658.56;145001;916;2002;-84
2022/02/13 09:06:48;;;;;;;;;;;;;;;12.69;68.46;102657.84;145002;918;1019;-84
2022/02/13 09:09:15;;;;;;;;;;;;;;;12.71;68.28;102657.94;145002;923;1020;-85
2022/02/13 09:11:42;;;;;;;;;;;;;;;12.74;68.30;102662.38;145001;922;2000;-84
2022/02/13 09:14:09;;;;;;;;;;;;;;;12.72;68.05;102659.69;145002;919;1021;-85
2022/02/13 09:16:35;;;;;;;;;;;;;;;12.64;67.50;102648.88;145002;923;1020;-85
2022/02/13 09:19:01;;;;;;;;;;;;;;;12.63;68.27;102652.31;145002;923;1016;-82
2022/02/13 09:21:27;;;;;;;;;;;;;;;12.41;66.62;102660.72;145002;922;1019;-84
2022/02/13 09:23:57;;;;;;;;;;;;;;;12.52;68.04;102656.97;145002;919;1021;-84
2022/02/13 09:26:27;;;;;;;;;;;;;;;12.58;67.93;102661.56;145002;922;1020;-83
2022/02/13 09:29:01;;;;;;;;;;;;;;;12.64;67.86;102655.81;145002;923;1015;-81
2022/02/13 09:31:32;;;;;;;;;;;;;;;12.77;67.60;102647.78;145002;922;1017;-85
2022/02/13 09:34:12;;;;;;;;;;;;;;;;;;;;;
2022/02/13 09:36:51;;;;;;;;;;;;;;;12.99;67.15;102649.78;145002;920;1017;-83
2022/02/13 09:39:20;;;;;;;;;;;;;;;13.09;66.89;102639.81;145002;921;1018;-82
2022/02/13 09:41:52;;;;;;;;;;;;;;;13.13;66.75;102645.28;145002;920;1017;-82
2022/02/13 09:44:34;;;;;;;;;;;;;;;13.23;66.59;102644.94;145002;920;1017;-83
2022/02/13 09:47:15;;;;;;;;;;;;;;;13.23;66.18;102641.41;145002;921;1018;-85
2022/02/13 09:49:41;;;;;;;;;;;;;;;13.27;66.23;102642.44;145002;920;1020;-82
2022/02/13 09:52:11;;;;;;;;;;;;;;;13.20;65.87;102641.25;145002;916;1019;-82
2022/02/13 09:54:40;;;;;;;;;;;;;;;13.15;65.91;102646.25;145002;921;1022;-81
2022/02/13 09:59:54;;;;;;;;;;;;;;;12.97;66.06;102640.13;145002;920;1018;-79
2022/02/13 10:02:36;;;;;;;;;;;;;;;12.96;66.07;102647.03;145002;925;1017;-86
2022/02/13 10:05:04;;;;;;;;;;;;;;;12.92;66.02;102642.50;145002;924;1019;-86
2022/02/13 10:07:34;;;;;;;;;;;;;;;12.83;65.54;102637.69;145002;925;1017;-83
2022/02/13 10:10:00;;;;;;;;;;;;;;;12.75;65.12;102631.19;145002;925;1017;-85
2022/02/13 10:12:31;;;;;;;;;;;;;;;12.16;66.20;102635.94;145002;924;1017;-84
2022/02/13 10:14:56;;;;;;;;;;;;;;;11.88;66.27;102633.53;145002;925;1017;-84
2022/02/13 10:17:25;;;;;;;;;;;;;;;12.02;67.05;102625.59;145002;925;1020;-83
2022/02/13 10:19:52;;;;;;;;;;;;;;;12.00;67.30;102622.03;145002;924;1020;-84
2022/02/13 10:22:33;;;;;;;;;;;;;;;12.08;66.84;102628.53;145002;925;1018;-85
2022/02/13 10:25:19;;;;;;;;;;;;;;;11.98;67.17;102625.44;145002;925;1017;-84
2022/02/13 10:27:46;;;;;;;;;;;;;;;11.95;67.08;102624.38;145002;921;1021;-84
2022/02/13 10:30:35;;;;;;;;;;;;;;;11.96;67.09;102621.88;145002;921;1024;-84
2022/02/13 10:33:27;;;;;;;;;;;;;;;11.89;66.66;102624.91;145002;920;1020;-84
2022/02/13 10:36:22;;;;;;;;;;;;;;;11.86;66.45;102624.72;145002;924;1018;-82
2022/02/13 10:38:52;;;;;;;;;;;;;;;11.76;67.53;102631.13;145002;921;1019;-81
2022/02/13 10:41:28;;;;;;;;;;;;;;;11.62;68.01;102622.56;145002;920;1026;-85
2022/02/13 10:43:58;;;;;;;;;;;;;;;11.84;67.42;102621.16;145001;921;1998;-84
2022/02/13 10:46:26;;;;;;;;;;;;;;;11.95;67.21;102613.97;145002;923;1019;-84
2022/02/13 10:48:52;;;;;;;;;;;;;;;11.96;67.12;102613.13;145002;922;1020;-83
2022/02/13 10:51:19;;;;;;;;;;;;;;;11.93;67.30;102621.69;145002;918;1017;-85
2022/02/13 10:53:45;;;;;;;;;;;;;;;12.02;67.12;102615.19;145002;923;1017;-84
2022/02/13 10:56:11;;;;;;;;;;;;;;;12.06;67.01;102615.44;145002;918;1020;-87
2022/02/13 10:58:38;;;;;;;;;;;;;;;11.85;66.44;102615.16;145002;922;1017;-84
2022/02/13 11:01:08;;;;;;;;;;;;;;;11.84;66.59;102612.47;145002;919;1017;-84
2022/02/13 11:03:37;;;;;;;;;;;;;;;11.94;67.06;102605.25;145002;922;1019;-88
2022/02/13 11:06:09;;;;;;;;;;;;;;;12.01;66.61;102610.78;145002;923;1017;-86
2022/02/13 11:08:40;;;;;;;;;;;;;;;11.83;65.64;102606.34;145002;923;1021;-86
2022/02/13 11:11:06;;;;;;;;;;;;;;;11.48;67.18;102610.47;145002;922;1020;-85
2022/02/13 11:13:33;;;;;;;;;;;;;;;11.48;67.91;102605.28;145002;922;1020;-86
2022/02/13 11:16:18;;;;;;;;;;;;;;;11.49;67.90;102612.28;145002;923;1017;-86
2022/02/13 11:18:45;;;;;;;;;;;;;;;11.48;67.42;102607.00;145002;922;1019;-84
2022/02/13 11:21:15;;;;;;;;;;;;;;;11.33;67.56;102604.44;145002;923;1018;-85
2022/02/13 11:23:52;;;;;;;;;;;;;;;11.33;67.81;102599.25;145002;923;1022;-84
2022/02/13 11:26:38;;;;;;;;;;;;;;;11.22;68.41;102596.91;145002;922;1018;-85
2022/02/13 11:29:06;;;;;;;;;;;;;;;11.17;68.94;102605.28;145002;923;1025;-85
2022/02/13 11:34:47;;;;;;;;;;;;;;;11.20;68.93;102587.25;145002;922;1022;-84
2022/02/13 11:37:19;;;;;;;;;;;;;;;11.35;68.22;102582.00;145002;923;1018;-82
2022/02/13 11:39:45;;;;;;;;;;;;;;;11.20;68.76;102585.53;145002;923;1020;-84
2022/02/13 11:42:24;;;;;;;;;;;;;;;11.19;68.52;102588.94;145002;922;1016;-85
2022/02/13 11:44:52;;;;;;;;;;;;;;;10.84;69.73;102576.50;145002;923;1015;-83
2022/02/13 11:47:52;;;;;;;;;;;;;;;10.82;70.68;102578.13;145002;923;1017;-85
2022/02/13 11:50:24;;;;;;;;;;;;;;;10.79;70.61;102585.75;145002;922;1018;-84
2022/02/13 11:52:51;;;;;;;;;;;;;;;10.85;70.36;102580.91;145002;923;1019;-86
2022/02/13 11:55:18;;;;;;;;;;;;;;;10.90;70.33;102579.47;145002;922;1018;-83
2022/02/13 11:58:00;;;;;;;;;;;;;;;10.60;71.84;102584.66;145002;922;1019;-86
2022/02/13 12:00:37;;;;;;;;;;;;;;;10.85;70.71;102573.13;145002;923;1020;-85
2022/02/13 12:03:33;;;;;;;;;;;;;;;10.84;70.65;102573.91;145002;922;1019;-86
2022/02/13 12:06:21;;;;;;;;;;;;;;;10.91;69.50;102577.75;145002;923;1016;-87
2022/02/13 12:08:48;;;;;;;;;;;;;;;10.40;70.54;102578.25;145002;923;1019;-88
2022/02/13 12:11:16;;;;;;;;;;;;;;;10.51;70.71;102572.03;145002;919;1022;-84
2022/02/13 12:13:43;;;;;;;;;;;;;;;10.53;71.45;102573.00;145002;923;1019;-86
2022/02/13 12:16:13;;;;;;;;;;;;;;;10.60;70.32;102575.97;145002;923;1025;-85
2022/02/13 12:18:48;;;;;;;;;;;;;;;10.50;70.10;102562.44;145002;922;1021;-84
2022/02/13 12:21:17;;;;;;;;;;;;;;;10.63;70.45;102558.84;145002;923;1018;-86
2022/02/13 12:23:43;;;;;;;;;;;;;;;10.67;69.98;102550.47;145002;923;1018;-84
2022/02/13 12:26:31;;;;;;;;;;;;;;;10.85;68.99;102557.53;145002;772;1257;-85
2022/02/13 12:29:00;;;;;;;;;;;;;;;10.92;67.47;102554.47;145002;927;1020;-84
2022/02/13 12:31:26;;;;;;;;;;;;;;;11.06;68.15;102552.66;145002;922;1019;-84
2022/02/13 12:33:54;;;;;;;;;;;;;;;10.87;67.58;102551.59;145002;926;1023;-88
2022/02/13 12:36:26;;;;;;;;;;;;;;;10.94;68.35;102554.56;145002;922;1017;-83
2022/02/13 12:38:55;;;;;;;;;;;;;;;11.07;67.84;102547.56;145002;927;1021;-84
2022/02/13 12:41:25;;;;;;;;;;;;;;;11.15;67.85;102549.69;145002;922;1019;-84
2022/02/13 12:43:51;;;;;;;;;;;;;;;11.23;67.64;102546.72;145002;926;1020;-84
2022/02/13 12:46:19;;;;;;;;;;;;;;;11.32;67.14;102543.72;145002;922;1017;-82
2022/02/13 12:48:49;;;;;;;;;;;;;;;11.33;67.34;102534.25;145002;926;1020;-83
2022/02/13 12:51:25;;;;;;;;;;;;;;;10.97;68.05;102542.63;145002;922;1017;-80
2022/02/13 12:53:51;;;;;;;;;;;;;;;10.99;67.79;102545.31;145002;927;1023;-82
2022/02/13 12:56:18;;;;;;;;;;;;;;;10.98;68.09;102540.94;145002;922;1020;-79
2022/02/13 12:58:45;;;;;;;;;;;;;;;10.92;68.48;102544.06;145002;926;1017;-79
2022/02/13 13:01:14;;;;;;;;;;;;;;;10.73;68.28;102536.91;145002;922;1017;-83
2022/02/13 13:03:42;;;;;;;;;;;;;;;10.99;68.44;102545.31;145002;926;1017;-83
2022/02/13 13:06:08;;;;;;;;;;;;;;;10.74;68.12;102533.53;145002;922;1019;-83
2022/02/13 13:08:44;;;;;;;;;;;;;;;10.79;68.16;102539.88;145002;923;1022;-83
2022/02/13 13:11:11;;;;;;;;;;;;;;;10.86;68.24;102535.91;145002;922;1017;-83